Time;durP1;ratioP1;P1;durP2;ratioP2;P2;SDS_P1;SDS_P2;PMS_P1;PMS_P2;Temp;Humidity;BMP_temperature;BMP_pressure;BME280_temperature;BME280_humidity;BME280_pressure;Samples;Min_cycle;Max_cycle;Signal;HPM_P1;HPM_P2
2023/12/08 00:01:19;;;;;;;7.97;7.37;;;;;;;;;;2614463;54;21025;-83
2023/12/08 00:03:45;;;;;;;7.80;7.20;;;;;;;;;;2613619;47;20420;-85
2023/12/08 00:06:11;;;;;;;8.00;7.40;;;;;;;;;;2614772;54;20403;-86
2023/12/08 00:08:37;;;;;;;7.70;7.10;;;;;;;;;;2614266;39;20944;-84
2023/12/08 00:11:04;;;;;;;9.00;8.10;;;;;;;;;;2614106;54;20422;-85
2023/12/08 00:13:32;;;;;;;8.10;7.40;;;;;;;;;;2613047;54;20421;-85
2023/12/08 00:15:58;;;;;;;8.30;7.60;;;;;;;;;;2614012;54;21226;-84
2023/12/08 00:18:24;;;;;;;8.47;7.77;;;;;;;;;;2612188;54;20432;-84
2023/12/08 00:20:50;;;;;;;7.40;6.73;;;;;;;;;;2614077;54;20459;-85
2023/12/08 00:23:17;;;;;;;7.93;7.33;;;;;;;;;;2613521;54;20471;-87
2023/12/08 00:25:43;;;;;;;7.90;7.40;;;;;;;;;;2612603;47;20486;-74
2023/12/08 00:28:09;;;;;;;8.93;7.90;;;;;;;;;;2611356;47;20445;-71
2023/12/08 00:30:35;;;;;;;7.90;7.30;;;;;;;;;;2611420;54;20421;-71
2023/12/08 00:33:02;;;;;;;8.10;7.40;;;;;;;;;;2613551;39;20556;-71
2023/12/08 00:35:28;;;;;;;7.40;6.70;;;;;;;;;;2614564;39;20979;-72
2023/12/08 00:37:54;;;;;;;7.70;7.10;;;;;;;;;;2612681;54;20422;-72
2023/12/08 00:40:21;;;;;;;8.73;7.93;;;;;;;;;;2611688;54;20506;-72
2023/12/08 00:42:47;;;;;;;9.23;8.40;;;;;;;;;;2611847;47;20432;-72
2023/12/08 00:45:15;;;;;;;8.90;8.20;;;;;;;;;;2612461;47;20465;-77
2023/12/08 00:47:40;;;;;;;9.47;8.50;;;;;;;;;;2613262;54;20439;-76
2023/12/08 00:50:07;;;;;;;8.93;8.13;;;;;;;;;;2612809;54;20987;-78
2023/12/08 00:52:33;;;;;;;11.47;9.17;;;;;;;;;;2613298;54;20415;-76
2023/12/08 00:54:59;;;;;;;9.23;8.43;;;;;;;;;;2613498;54;20452;-78
2023/12/08 00:57:25;;;;;;;7.50;6.90;;;;;;;;;;2612193;54;20835;-77
2023/12/08 00:59:51;;;;;;;8.90;8.00;;;;;;;;;;2612045;39;20834;-77
2023/12/08 01:02:17;;;;;;;8.50;7.70;;;;;;;;;;2612430;46;20463;-77
2023/12/08 01:04:43;;;;;;;9.43;8.07;;;;;;;;;;2613559;54;20483;-79
2023/12/08 01:07:10;;;;;;;9.00;8.20;;;;;;;;;;2611975;54;20992;-77
2023/12/08 01:09:36;;;;;;;9.07;8.27;;;;;;;;;;2613779;39;20815;-76
2023/12/08 01:12:03;;;;;;;7.87;7.00;;;;;;;;;;2611393;54;20439;-76
2023/12/08 01:14:30;;;;;;;10.57;8.73;;;;;;;;;;2610815;54;20438;-78
2023/12/08 01:16:56;;;;;;;8.27;7.47;;;;;;;;;;2610723;54;20499;-78
2023/12/08 01:19:22;;;;;;;8.70;7.57;;;;;;;;;;2613239;54;20431;-77
2023/12/08 01:21:48;;;;;;;8.50;7.70;;;;;;;;;;2612030;54;20438;-77
2023/12/08 01:24:15;;;;;;;9.63;8.73;;;;;;;;;;2610703;54;20427;-75
2023/12/08 01:26:44;;;;;;;9.27;8.37;;;;;;;;;;2612032;54;20419;-77
2023/12/08 01:29:10;;;;;;;9.40;8.30;;;;;;;;;;2609570;54;21055;-79
2023/12/08 01:31:36;;;;;;;10.30;9.30;;;;;;;;;;2609761;54;20460;-78
2023/12/08 01:34:02;;;;;;;9.33;8.30;;;;;;;;;;2610580;54;20420;-78
2023/12/08 01:36:28;;;;;;;9.50;7.50;;;;;;;;;;2612966;49;20474;-77
2023/12/08 01:38:54;;;;;;;8.77;7.90;;;;;;;;;;2611465;39;20753;-77
2023/12/08 01:41:21;;;;;;;10.47;8.83;;;;;;;;;;2609831;39;20653;-76
2023/12/08 01:43:47;;;;;;;9.67;8.70;;;;;;;;;;2611512;54;20526;-76
2023/12/08 01:46:15;;;;;;;11.00;9.00;;;;;;;;;;2612189;54;20965;-76
2023/12/08 01:48:42;;;;;;;10.20;9.17;;;;;;;;;;2611760;47;20415;-77
2023/12/08 01:51:10;;;;;;;9.87;8.87;;;;;;;;;;2613146;54;20436;-77
2023/12/08 01:53:36;;;;;;;9.70;8.63;;;;;;;;;;2613227;54;20516;-76
2023/12/08 01:56:02;;;;;;;9.87;8.87;;;;;;;;;;2612839;54;20436;-76
2023/12/08 01:58:28;;;;;;;9.47;8.67;;;;;;;;;;2611503;54;20410;-77
2023/12/08 02:00:55;;;;;;;10.13;8.57;;;;;;;;;;2610607;54;20426;-76
2023/12/08 02:03:22;;;;;;;10.33;9.23;;;;;;;;;;2613223;54;20428;-76
2023/12/08 02:05:48;;;;;;;10.53;9.37;;;;;;;;;;2613612;39;20885;-79
2023/12/08 02:08:15;;;;;;;9.23;8.33;;;;;;;;;;2612508;51;20437;-76
2023/12/08 02:10:41;;;;;;;9.30;8.50;;;;;;;;;;2612340;54;20443;-76
2023/12/08 02:13:07;;;;;;;9.80;8.90;;;;;;;;;;2613133;54;20445;-76
2023/12/08 02:15:33;;;;;;;8.83;7.97;;;;;;;;;;2610862;54;21149;-77
2023/12/08 02:18:00;;;;;;;9.47;8.57;;;;;;;;;;2613311;54;20431;-76
2023/12/08 02:20:26;;;;;;;8.83;8.03;;;;;;;;;;2613406;54;20416;-77
2023/12/08 02:22:52;;;;;;;11.60;9.33;;;;;;;;;;2612584;54;20423;-77
2023/12/08 02:25:18;;;;;;;9.80;8.80;;;;;;;;;;2611173;54;20474;-78
2023/12/08 02:27:44;;;;;;;10.40;9.40;;;;;;;;;;2609247;54;20419;-77
2023/12/08 02:30:10;;;;;;;8.60;7.90;;;;;;;;;;2610579;46;20405;-77
2023/12/08 02:32:57;;;;;;;11.20;9.77;;;;;;;;;;2613203;46;20435;-77
2023/12/08 02:35:24;;;;;;;10.07;9.17;;;;;;;;;;2611635;54;20456;-77
2023/12/08 02:37:51;;;;;;;10.90;9.77;;;;;;;;;;2611174;54;20447;-76
2023/12/08 02:40:18;;;;;;;9.60;8.80;;;;;;;;;;2612662;39;20952;-78
2023/12/08 02:42:44;;;;;;;10.00;9.10;;;;;;;;;;2610808;54;20936;-77
2023/12/08 02:45:10;;;;;;;10.40;9.20;;;;;;;;;;2611477;54;20400;-85
2023/12/08 02:47:36;;;;;;;9.37;8.50;;;;;;;;;;2611445;54;20462;-84
2023/12/08 02:50:02;;;;;;;12.03;9.87;;;;;;;;;;2614383;47;20839;-84
2023/12/08 02:52:28;;;;;;;11.33;9.27;;;;;;;;;;2615181;47;20462;-85
2023/12/08 02:54:54;;;;;;;11.40;9.50;;;;;;;;;;2614461;54;20423;-81
2023/12/08 02:57:20;;;;;;;10.47;9.37;;;;;;;;;;2614281;46;20455;-83
2023/12/08 02:59:46;;;;;;;11.30;9.57;;;;;;;;;;2613219;54;20419;-81
2023/12/08 03:02:12;;;;;;;10.33;9.33;;;;;;;;;;2614315;54;20520;-83
2023/12/08 03:04:38;;;;;;;10.97;9.97;;;;;;;;;;2614513;54;20428;-84
2023/12/08 03:07:04;;;;;;;9.93;9.00;;;;;;;;;;2612715;54;20431;-76
2023/12/08 03:09:30;;;;;;;10.23;9.33;;;;;;;;;;2612719;54;20428;-77
2023/12/08 03:11:56;;;;;;;10.83;9.07;;;;;;;;;;2613202;39;20506;-75
2023/12/08 03:14:22;;;;;;;11.00;8.93;;;;;;;;;;2612884;39;20447;-74
2023/12/08 03:16:49;;;;;;;10.60;9.50;;;;;;;;;;2611691;47;21077;-75
2023/12/08 03:19:16;;;;;;;10.10;8.23;;;;;;;;;;2612595;54;20487;-74
2023/12/08 03:21:42;;;;;;;10.20;7.83;;;;;;;;;;2612753;47;20440;-75
2023/12/08 03:24:08;;;;;;;10.20;8.50;;;;;;;;;;2612093;54;20414;-75
2023/12/08 03:26:34;;;;;;;10.13;7.27;;;;;;;;;;2611671;39;21152;-74
2023/12/08 03:29:00;;;;;;;9.83;7.43;;;;;;;;;;2610184;54;20432;-75
2023/12/08 03:31:27;;;;;;;11.73;7.23;;;;;;;;;;2611829;54;21012;-75
2023/12/08 03:33:53;;;;;;;12.77;9.47;;;;;;;;;;2611091;54;20953;-75
2023/12/08 03:36:19;;;;;;;14.00;9.43;;;;;;;;;;2610289;54;20403;-76
2023/12/08 03:38:45;;;;;;;10.13;8.37;;;;;;;;;;2611445;31;20955;-75
2023/12/08 03:41:12;;;;;;;11.93;8.40;;;;;;;;;;2611582;47;20454;-75
2023/12/08 03:43:38;;;;;;;9.53;7.17;;;;;;;;;;2612422;54;20430;-75
2023/12/08 03:46:05;;;;;;;14.33;9.33;;;;;;;;;;2612066;54;20449;-75
2023/12/08 03:48:31;;;;;;;12.40;8.47;;;;;;;;;;2612790;39;20830;-75
2023/12/08 03:50:57;;;;;;;12.57;8.70;;;;;;;;;;2612055;54;20471;-76
2023/12/08 03:53:24;;;;;;;11.60;8.70;;;;;;;;;;2612027;54;20724;-75
2023/12/08 03:55:50;;;;;;;11.80;8.60;;;;;;;;;;2611846;54;20932;-71
2023/12/08 03:58:16;;;;;;;14.90;8.93;;;;;;;;;;2612223;54;20455;-70
2023/12/08 04:00:42;;;;;;;9.90;8.77;;;;;;;;;;2612296;54;20395;-72
2023/12/08 04:03:08;;;;;;;11.20;9.33;;;;;;;;;;2612093;54;20991;-71
2023/12/08 04:05:34;;;;;;;11.67;8.97;;;;;;;;;;2612720;54;20432;-71
2023/12/08 04:08:04;;;;;;;13.30;9.63;;;;;;;;;;2612936;54;20395;-70
2023/12/08 04:10:30;;;;;;;15.87;10.73;;;;;;;;;;2612904;54;20462;-70
2023/12/08 04:12:56;;;;;;;13.10;9.30;;;;;;;;;;2610310;54;20435;-70
2023/12/08 04:15:22;;;;;;;15.23;10.90;;;;;;;;;;2610282;47;20454;-77
2023/12/08 04:17:48;;;;;;;13.27;10.07;;;;;;;;;;2610573;47;20426;-76
2023/12/08 04:20:14;;;;;;;12.13;9.90;;;;;;;;;;2611957;54;20410;-77
2023/12/08 04:22:40;;;;;;;12.90;9.13;;;;;;;;;;2613148;54;20400;-76
2023/12/08 04:25:06;;;;;;;12.57;9.60;;;;;;;;;;2614138;46;20423;-76
2023/12/08 04:27:32;;;;;;;15.07;9.70;;;;;;;;;;2612940;39;20972;-76
2023/12/08 04:29:58;;;;;;;13.90;10.17;;;;;;;;;;2613746;47;20515;-77
2023/12/08 04:32:24;;;;;;;12.83;8.43;;;;;;;;;;2611951;54;20481;-76
2023/12/08 04:34:50;;;;;;;13.40;10.03;;;;;;;;;;2612055;39;20650;-75
2023/12/08 04:37:16;;;;;;;13.43;8.93;;;;;;;;;;2612570;54;20407;-76
2023/12/08 04:39:42;;;;;;;12.30;9.03;;;;;;;;;;2614010;39;20734;-78
2023/12/08 04:42:08;;;;;;;12.80;9.07;;;;;;;;;;2613097;54;20436;-78
2023/12/08 04:44:35;;;;;;;10.43;9.33;;;;;;;;;;2611937;54;20538;-75
2023/12/08 04:47:02;;;;;;;11.53;9.47;;;;;;;;;;2611282;46;20422;-76
2023/12/08 04:49:28;;;;;;;12.27;9.70;;;;;;;;;;2613098;47;20579;-77
2023/12/08 04:51:54;;;;;;;14.97;11.00;;;;;;;;;;2612852;54;20522;-75
2023/12/08 04:54:20;;;;;;;15.30;9.90;;;;;;;;;;2613630;39;20600;-76
2023/12/08 04:56:47;;;;;;;12.30;10.80;;;;;;;;;;2612876;54;20510;-76
2023/12/08 04:59:13;;;;;;;13.50;9.07;;;;;;;;;;2610806;54;20427;-76
2023/12/08 05:01:39;;;;;;;13.33;9.53;;;;;;;;;;2611395;54;20494;-78
2023/12/08 05:04:05;;;;;;;11.93;9.80;;;;;;;;;;2611356;54;20423;-75
2023/12/08 05:06:31;;;;;;;14.57;9.00;;;;;;;;;;2611437;54;20403;-80
2023/12/08 05:08:57;;;;;;;11.97;8.70;;;;;;;;;;2613440;39;20808;-82
2023/12/08 05:11:23;;;;;;;14.43;10.77;;;;;;;;;;2613072;54;20444;-79
2023/12/08 05:13:49;;;;;;;16.87;10.03;;;;;;;;;;2612095;54;20419;-80
2023/12/08 05:16:15;;;;;;;15.30;10.60;;;;;;;;;;2613489;54;20416;-80
2023/12/08 05:18:42;;;;;;;13.10;9.90;;;;;;;;;;2611797;54;20435;-80
2023/12/08 05:21:08;;;;;;;10.40;8.27;;;;;;;;;;2614446;54;20408;-80
2023/12/08 05:23:34;;;;;;;14.53;11.17;;;;;;;;;;2612795;54;20446;-81
2023/12/08 05:26:00;;;;;;;15.43;9.20;;;;;;;;;;2614367;54;20411;-70
2023/12/08 05:28:27;;;;;;;13.73;9.73;;;;;;;;;;2611673;47;20419;-71
2023/12/08 05:30:53;;;;;;;15.57;10.93;;;;;;;;;;2610876;54;20424;-72
2023/12/08 05:33:19;;;;;;;14.00;9.83;;;;;;;;;;2611748;54;20547;-71
2023/12/08 05:35:45;;;;;;;15.63;10.90;;;;;;;;;;2612786;54;20426;-71
2023/12/08 05:38:11;;;;;;;16.40;11.40;;;;;;;;;;2610326;39;20948;-71
2023/12/08 05:40:37;;;;;;;18.27;9.97;;;;;;;;;;2610198;54;20452;-72
2023/12/08 05:43:04;;;;;;;15.20;10.90;;;;;;;;;;2611786;54;20426;-72
2023/12/08 05:45:30;;;;;;;18.40;11.73;;;;;;;;;;2612630;54;21122;-71
2023/12/08 05:47:56;;;;;;;21.47;10.70;;;;;;;;;;2612317;54;20430;-71
2023/12/08 05:50:22;;;;;;;16.67;12.47;;;;;;;;;;2610552;39;21054;-72
2023/12/08 05:52:48;;;;;;;16.83;10.50;;;;;;;;;;2611418;54;20433;-72
2023/12/08 05:55:14;;;;;;;16.87;10.27;;;;;;;;;;2611398;54;20972;-71
2023/12/08 05:57:41;;;;;;;17.13;10.67;;;;;;;;;;2612154;54;20423;-72
2023/12/08 06:00:10;;;;;;;14.53;9.93;;;;;;;;;;2612432;54;21615;-72
2023/12/08 06:02:36;;;;;;;18.37;10.83;;;;;;;;;;2611923;54;20978;-71
2023/12/08 06:05:02;;;;;;;13.50;10.13;;;;;;;;;;2611797;54;20953;-70
2023/12/08 06:07:28;;;;;;;12.40;8.40;;;;;;;;;;2611590;54;20436;-71
2023/12/08 06:09:54;;;;;;;18.67;11.97;;;;;;;;;;2611261;54;20411;-72
2023/12/08 06:12:20;;;;;;;16.13;12.13;;;;;;;;;;2611930;54;20387;-72
2023/12/08 06:14:46;;;;;;;21.87;12.40;;;;;;;;;;2612146;47;20435;-71
2023/12/08 06:17:12;;;;;;;17.73;10.97;;;;;;;;;;2611695;47;20446;-77
2023/12/08 06:19:39;;;;;;;13.87;9.37;;;;;;;;;;2611554;54;20408;-75
2023/12/08 06:22:05;;;;;;;18.93;11.80;;;;;;;;;;2612563;47;20477;-76
2023/12/08 06:24:31;;;;;;;16.07;10.63;;;;;;;;;;2612363;54;20967;-76
2023/12/08 06:26:57;;;;;;;13.03;9.80;;;;;;;;;;2613178;47;20466;-78
2023/12/08 06:29:23;;;;;;;15.30;11.70;;;;;;;;;;2612754;47;21066;-77
2023/12/08 06:31:49;;;;;;;19.00;11.20;;;;;;;;;;2611517;54;20446;-77
2023/12/08 06:34:15;;;;;;;15.07;11.40;;;;;;;;;;2612022;54;20434;-76
2023/12/08 06:36:50;;;;;;;17.30;11.77;;;;;;;;;;2615155;54;20428;-85
2023/12/08 06:39:16;;;;;;;18.57;11.70;;;;;;;;;;2615923;46;20419;-85
2023/12/08 06:41:43;;;;;;;17.53;11.60;;;;;;;;;;2616801;47;20471;-87
2023/12/08 06:44:09;;;;;;;19.93;12.93;;;;;;;;;;2614947;54;20436;-86
2023/12/08 06:46:35;;;;;;;16.00;11.67;;;;;;;;;;2615904;54;20411;-86
2023/12/08 06:49:01;;;;;;;18.40;12.33;;;;;;;;;;2615650;54;20415;-86
2023/12/08 06:51:28;;;;;;;17.30;10.90;;;;;;;;;;2616153;39;20831;-85
2023/12/08 06:53:54;;;;;;;16.53;10.10;;;;;;;;;;2616292;54;20402;-86
2023/12/08 06:56:23;;;;;;;23.70;11.63;;;;;;;;;;2616224;54;21016;-86
2023/12/08 06:58:49;;;;;;;16.33;12.37;;;;;;;;;;2615422;47;20424;-86
2023/12/08 07:01:15;;;;;;;13.53;10.13;;;;;;;;;;2614691;47;20414;-86
2023/12/08 07:03:41;;;;;;;15.50;12.47;;;;;;;;;;2616109;54;20435;-85
2023/12/08 07:06:07;;;;;;;17.70;12.63;;;;;;;;;;2614427;54;20532;-87
2023/12/08 07:08:33;;;;;;;16.73;11.07;;;;;;;;;;2615245;54;20400;-86
2023/12/08 07:11:00;;;;;;;22.23;13.37;;;;;;;;;;2615206;54;20411;-87
2023/12/08 07:13:26;;;;;;;16.80;12.53;;;;;;;;;;2615388;54;20546;-86
2023/12/08 07:15:52;;;;;;;17.57;12.87;;;;;;;;;;2614703;54;20396;-86
2023/12/08 07:18:19;;;;;;;17.10;10.87;;;;;;;;;;2615741;54;20444;-86
2023/12/08 07:20:47;;;;;;;19.03;12.53;;;;;;;;;;2616298;54;20425;-86
2023/12/08 07:23:13;;;;;;;16.67;11.70;;;;;;;;;;2615645;47;20466;-85
2023/12/08 07:25:39;;;;;;;21.57;13.37;;;;;;;;;;2612274;54;20411;-77
2023/12/08 07:28:05;;;;;;;20.57;13.37;;;;;;;;;;2611590;54;20419;-78
2023/12/08 07:30:31;;;;;;;23.10;12.90;;;;;;;;;;2611529;47;20418;-78
2023/12/08 07:32:57;;;;;;;16.57;11.07;;;;;;;;;;2609210;54;20443;-78
2023/12/08 07:35:23;;;;;;;21.03;13.30;;;;;;;;;;2610683;39;20828;-77
2023/12/08 07:37:49;;;;;;;15.00;10.70;;;;;;;;;;2611855;47;20450;-77
2023/12/08 07:40:16;;;;;;;21.00;14.20;;;;;;;;;;2610924;54;20929;-77
2023/12/08 07:42:43;;;;;;;19.10;13.73;;;;;;;;;;2612592;54;20416;-77
2023/12/08 07:45:10;;;;;;;20.87;13.80;;;;;;;;;;2612354;46;20438;-71
2023/12/08 07:47:36;;;;;;;16.47;9.60;;;;;;;;;;2610517;54;20500;-70
2023/12/08 07:50:02;;;;;;;15.33;10.93;;;;;;;;;;2611230;39;20768;-72
2023/12/08 07:52:29;;;;;;;18.20;11.97;;;;;;;;;;2611278;54;20435;-71
2023/12/08 07:54:55;;;;;;;19.80;14.47;;;;;;;;;;2610427;47;20439;-72
2023/12/08 07:57:21;;;;;;;15.63;9.57;;;;;;;;;;2612086;47;20532;-70
2023/12/08 07:59:47;;;;;;;20.27;12.67;;;;;;;;;;2610885;54;20432;-70
2023/12/08 08:02:13;;;;;;;18.30;13.57;;;;;;;;;;2612162;54;20403;-72
2023/12/08 08:04:41;;;;;;;23.83;15.23;;;;;;;;;;2612238;54;20419;-72
2023/12/08 08:07:07;;;;;;;19.00;12.30;;;;;;;;;;2611330;54;20424;-71
2023/12/08 08:09:33;;;;;;;20.73;14.53;;;;;;;;;;2612738;39;20797;-70
2023/12/08 08:11:59;;;;;;;24.60;14.83;;;;;;;;;;2611228;54;20484;-70
2023/12/08 08:14:25;;;;;;;17.13;12.90;;;;;;;;;;2610841;39;20939;-71
2023/12/08 08:16:51;;;;;;;22.97;14.03;;;;;;;;;;2611749;54;20392;-70
2023/12/08 08:19:17;;;;;;;21.23;14.87;;;;;;;;;;2611329;54;20404;-70
2023/12/08 08:21:43;;;;;;;20.83;14.13;;;;;;;;;;2611371;54;20471;-70
2023/12/08 08:24:09;;;;;;;19.80;14.20;;;;;;;;;;2612113;54;20539;-70
2023/12/08 08:26:35;;;;;;;20.50;15.33;;;;;;;;;;2611372;47;20435;-71
2023/12/08 08:29:01;;;;;;;20.90;14.97;;;;;;;;;;2611214;54;20420;-70
2023/12/08 08:31:27;;;;;;;22.10;15.97;;;;;;;;;;2612299;54;20392;-70
2023/12/08 08:33:53;;;;;;;23.07;13.80;;;;;;;;;;2610713;47;20404;-71
2023/12/08 08:36:19;;;;;;;22.43;15.53;;;;;;;;;;2611359;54;20427;-73
2023/12/08 08:38:45;;;;;;;19.03;14.00;;;;;;;;;;2610272;54;20423;-71
2023/12/08 08:41:11;;;;;;;21.00;13.93;;;;;;;;;;2611083;54;20454;-72
2023/12/08 08:43:38;;;;;;;20.60;14.33;;;;;;;;;;2610610;54;20427;-72
2023/12/08 08:46:04;;;;;;;22.67;15.47;;;;;;;;;;2612850;54;20431;-73
2023/12/08 08:48:30;;;;;;;25.63;15.37;;;;;;;;;;2609786;54;20495;-72
2023/12/08 08:50:56;;;;;;;23.90;13.53;;;;;;;;;;2611603;54;20942;-71
2023/12/08 08:53:22;;;;;;;20.13;14.57;;;;;;;;;;2612650;54;20765;-71
2023/12/08 08:55:48;;;;;;;28.80;15.90;;;;;;;;;;2612616;54;20451;-70
2023/12/08 08:58:14;;;;;;;20.20;13.40;;;;;;;;;;2612194;54;20457;-70
2023/12/08 09:00:40;;;;;;;24.67;14.10;;;;;;;;;;2611816;54;20416;-71
2023/12/08 09:03:06;;;;;;;21.63;15.83;;;;;;;;;;2610096;47;20438;-70
2023/12/08 09:05:36;;;;;;;18.00;12.23;;;;;;;;;;2611924;39;21035;-70
2023/12/08 09:08:02;;;;;;;22.40;15.00;;;;;;;;;;2610637;54;20475;-70
2023/12/08 09:10:28;;;;;;;22.67;14.50;;;;;;;;;;2611956;54;20591;-70
2023/12/08 09:12:54;;;;;;;22.90;14.03;;;;;;;;;;2610388;54;20435;-71
2023/12/08 09:15:20;;;;;;;24.00;13.90;;;;;;;;;;2612083;54;20470;-71
2023/12/08 09:17:46;;;;;;;20.07;14.07;;;;;;;;;;2611526;54;20562;-71
2023/12/08 09:20:14;;;;;;;17.67;12.40;;;;;;;;;;2611395;54;20397;-70
2023/12/08 09:22:41;;;;;;;17.33;9.90;;;;;;;;;;2612456;54;20448;-70
2023/12/08 09:25:08;;;;;;;19.13;13.20;;;;;;;;;;2612588;54;20420;-72
2023/12/08 09:27:34;;;;;;;19.40;12.70;;;;;;;;;;2612497;47;20431;-71
2023/12/08 09:30:00;;;;;;;17.70;12.90;;;;;;;;;;2612667;47;20464;-71
2023/12/08 09:32:26;;;;;;;13.37;8.93;;;;;;;;;;2610444;54;20455;-70
2023/12/08 09:34:52;;;;;;;20.63;14.77;;;;;;;;;;2612111;54;20436;-73
2023/12/08 09:37:18;;;;;;;17.43;11.17;;;;;;;;;;2611893;47;21178;-71
2023/12/08 09:39:44;;;;;;;18.80;13.40;;;;;;;;;;2612082;54;20456;-71
2023/12/08 09:42:15;;;;;;;13.50;9.20;;;;;;;;;;2611180;54;20425;-70
2023/12/08 09:44:41;;;;;;;20.23;12.67;;;;;;;;;;2610814;54;20428;-69
2023/12/08 09:47:09;;;;;;;18.27;10.40;;;;;;;;;;2611486;54;20954;-70
2023/12/08 09:49:40;;;;;;;20.40;12.10;;;;;;;;;;2611076;54;20437;-71
2023/12/08 09:52:06;;;;;;;21.30;14.03;;;;;;;;;;2611686;54;20425;-72
2023/12/08 09:54:32;;;;;;;19.70;12.60;;;;;;;;;;2612429;54;20424;-74
2023/12/08 09:57:00;;;;;;;13.37;9.77;;;;;;;;;;2611581;47;20451;-72
2023/12/08 09:59:30;;;;;;;21.37;13.27;;;;;;;;;;2611598;54;20398;-72
2023/12/08 10:01:56;;;;;;;16.43;8.60;;;;;;;;;;2611302;54;20437;-74
2023/12/08 10:04:26;;;;;;;22.40;14.53;;;;;;;;;;2610596;54;20447;-72
2023/12/08 10:06:53;;;;;;;18.40;15.00;;;;;;;;;;2610576;54;20461;-72
2023/12/08 10:09:19;;;;;;;21.20;14.70;;;;;;;;;;2611763;54;20408;-72
2023/12/08 10:11:45;;;;;;;17.20;11.60;;;;;;;;;;2611618;54;20395;-73
2023/12/08 10:14:15;;;;;;;16.93;11.10;;;;;;;;;;2611355;47;20439;-73
2023/12/08 10:16:44;;;;;;;20.60;13.17;;;;;;;;;;2611140;39;20807;-72
2023/12/08 10:19:10;;;;;;;20.70;13.87;;;;;;;;;;2612062;54;20499;-72
2023/12/08 10:21:36;;;;;;;24.60;14.07;;;;;;;;;;2612436;47;20406;-72
2023/12/08 10:24:07;;;;;;;18.67;13.30;;;;;;;;;;2611294;54;20408;-72
2023/12/08 10:26:34;;;;;;;17.70;12.60;;;;;;;;;;2612346;54;20408;-72
2023/12/08 10:29:01;;;;;;;20.63;12.90;;;;;;;;;;2610423;54;20396;-73
2023/12/08 10:31:27;;;;;;;17.13;12.47;;;;;;;;;;2612497;54;21128;-72
2023/12/08 10:33:56;;;;;;;15.17;11.50;;;;;;;;;;2611220;54;20452;-74
2023/12/08 10:36:23;;;;;;;16.57;12.77;;;;;;;;;;2611323;54;20385;-72
2023/12/08 10:38:49;;;;;;;15.80;11.40;;;;;;;;;;2609481;54;20405;-72
2023/12/08 10:41:16;;;;;;;16.70;11.97;;;;;;;;;;2611175;39;20848;-73
2023/12/08 10:43:43;;;;;;;20.23;13.77;;;;;;;;;;2612010;47;20432;-72
2023/12/08 10:46:09;;;;;;;18.73;13.07;;;;;;;;;;2611731;54;20423;-72
2023/12/08 10:48:37;;;;;;;17.77;11.47;;;;;;;;;;2610261;54;20435;-73
2023/12/08 10:51:03;;;;;;;16.30;9.50;;;;;;;;;;2609289;54;20504;-72
2023/12/08 10:53:31;;;;;;;16.37;12.17;;;;;;;;;;2612295;39;20892;-71
2023/12/08 10:55:57;;;;;;;14.90;10.10;;;;;;;;;;2613266;39;20829;-77
2023/12/08 10:58:23;;;;;;;21.47;12.47;;;;;;;;;;2609291;54;20400;-77
2023/12/08 11:00:54;;;;;;;17.37;11.60;;;;;;;;;;2610128;54;20959;-76
2023/12/08 11:03:21;;;;;;;21.20;13.07;;;;;;;;;;2610273;31;20986;-75
2023/12/08 11:05:50;;;;;;;20.53;12.63;;;;;;;;;;2611369;47;20792;-76
2023/12/08 11:08:18;;;;;;;19.53;11.70;;;;;;;;;;2611919;39;20829;-75
2023/12/08 11:10:46;;;;;;;18.20;11.10;;;;;;;;;;2610791;39;20833;-78
2023/12/08 11:13:17;;;;;;;15.33;11.40;;;;;;;;;;2611867;47;20394;-76
2023/12/08 11:15:45;;;;;;;13.17;7.17;;;;;;;;;;2609774;54;20519;-73
2023/12/08 11:18:21;;;;;;;16.57;11.43;;;;;;;;;;2609704;54;20397;-72
2023/12/08 11:20:47;;;;;;;15.53;9.37;;;;;;;;;;2612292;47;20798;-73
2023/12/08 11:23:13;;;;;;;19.03;12.17;;;;;;;;;;2611013;54;20418;-73
2023/12/08 11:25:43;;;;;;;23.37;13.10;;;;;;;;;;2611850;47;20396;-71
2023/12/08 11:28:39;;;;;;;17.30;12.07;;;;;;;;;;2612092;54;21296;-72
2023/12/08 11:31:13;;;;;;;19.97;12.60;;;;;;;;;;2610131;54;20408;-73
2023/12/08 11:33:43;;;;;;;17.40;12.17;;;;;;;;;;2607238;54;21417;-72
2023/12/08 11:36:10;;;;;;;23.80;14.30;;;;;;;;;;2610072;54;20429;-73
2023/12/08 11:38:39;;;;;;;14.80;9.87;;;;;;;;;;2608819;47;20537;-73
2023/12/08 11:41:14;;;;;;;21.20;14.40;;;;;;;;;;2603975;54;20439;-72
2023/12/08 11:43:42;;;;;;;20.47;14.70;;;;;;;;;;2610776;54;20413;-72
2023/12/08 11:46:08;;;;;;;24.10;15.30;;;;;;;;;;2609134;54;20416;-72
2023/12/08 11:48:35;;;;;;;21.27;14.37;;;;;;;;;;2607297;54;20428;-71
2023/12/08 11:51:01;;;;;;;15.10;11.27;;;;;;;;;;2610344;54;20408;-72
2023/12/08 11:53:27;;;;;;;26.43;16.37;;;;;;;;;;2610654;47;20520;-73
2023/12/08 11:55:54;;;;;;;22.07;14.77;;;;;;;;;;2609933;39;20606;-72
2023/12/08 11:58:24;;;;;;;24.20;14.47;;;;;;;;;;2609419;54;21003;-73
2023/12/08 12:00:50;;;;;;;25.70;14.50;;;;;;;;;;2609751;54;21010;-73
2023/12/08 12:03:16;;;;;;;27.40;15.30;;;;;;;;;;2609867;54;20407;-72
2023/12/08 12:05:43;;;;;;;26.97;16.63;;;;;;;;;;2609249;54;20447;-77
2023/12/08 12:08:10;;;;;;;26.50;16.17;;;;;;;;;;2610360;47;20480;-77
2023/12/08 12:10:35;;;;;;;29.10;13.10;;;;;;;;;;2612842;54;20415;-76
2023/12/08 12:13:03;;;;;;;27.40;15.63;;;;;;;;;;2612625;39;20825;-77
2023/12/08 12:15:30;;;;;;;23.53;15.97;;;;;;;;;;2611658;54;20404;-76
2023/12/08 12:17:56;;;;;;;17.23;12.03;;;;;;;;;;2612463;54;20442;-74
2023/12/08 12:20:22;;;;;;;20.17;10.27;;;;;;;;;;2611967;54;20410;-75
2023/12/08 12:22:48;;;;;;;29.20;16.90;;;;;;;;;;2612110;54;20427;-77
2023/12/08 12:25:15;;;;;;;28.67;16.87;;;;;;;;;;2613333;39;20869;-73
2023/12/08 12:27:42;;;;;;;23.33;14.97;;;;;;;;;;2613469;39;20791;-73
2023/12/08 12:30:08;;;;;;;21.13;11.10;;;;;;;;;;2612027;47;20431;-72
2023/12/08 12:32:34;;;;;;;25.03;17.40;;;;;;;;;;2612942;54;20463;-73
2023/12/08 12:35:01;;;;;;;38.10;20.33;;;;;;;;;;2612902;54;20444;-73
2023/12/08 12:37:27;;;;;;;23.87;17.43;;;;;;;;;;2613241;39;20829;-73
2023/12/08 12:39:53;;;;;;;29.23;16.03;;;;;;;;;;2612490;39;20974;-74
2023/12/08 12:42:19;;;;;;;31.70;16.97;;;;;;;;;;2611985;54;20409;-73
2023/12/08 12:44:48;;;;;;;19.20;12.90;;;;;;;;;;2612263;46;20451;-73
2023/12/08 12:47:15;;;;;;;25.77;15.60;;;;;;;;;;2609662;47;20449;-73
2023/12/08 12:49:42;;;;;;;29.13;16.17;;;;;;;;;;2612066;39;20787;-73
2023/12/08 12:52:36;;;;;;;25.53;13.50;;;;;;;;;;2611267;47;20477;-74
2023/12/08 12:55:02;;;;;;;24.00;14.40;;;;;;;;;;2610734;54;20439;-73
2023/12/08 12:57:50;;;;;;;17.60;10.93;;;;;;;;;;2611227;54;20408;-73
2023/12/08 13:00:30;;;;;;;22.17;13.80;;;;;;;;;;2608990;47;20439;-72
2023/12/08 13:02:56;;;;;;;22.27;13.57;;;;;;;;;;2611235;54;20403;-71
2023/12/08 13:05:22;;;;;;;18.17;10.57;;;;;;;;;;2611995;54;20414;-72
2023/12/08 13:07:58;;;;;;;19.37;11.60;;;;;;;;;;2613129;39;20821;-72
2023/12/08 13:10:24;;;;;;;20.80;13.30;;;;;;;;;;2613501;39;20819;-73
2023/12/08 13:12:50;;;;;;;21.83;11.97;;;;;;;;;;2611195;54;20516;-74
2023/12/08 13:15:17;;;;;;;26.70;14.80;;;;;;;;;;2612775;54;20629;-87
2023/12/08 13:17:43;;;;;;;19.27;12.67;;;;;;;;;;2614809;54;20406;-87
2023/12/08 13:20:09;;;;;;;26.00;14.40;;;;;;;;;;2614893;54;20441;-88
2023/12/08 13:22:35;;;;;;;24.67;14.77;;;;;;;;;;2618213;54;20438;-87
2023/12/08 13:25:02;;;;;;;19.90;11.53;;;;;;;;;;2617273;54;20425;-86
2023/12/08 13:27:28;;;;;;;21.33;13.30;;;;;;;;;;2615262;54;20429;-86
2023/12/08 13:29:54;;;;;;;21.60;13.67;;;;;;;;;;2620359;54;20428;-86
2023/12/08 13:32:20;;;;;;;20.67;13.50;;;;;;;;;;2619331;54;20434;-86
2023/12/08 13:34:46;;;;;;;15.23;10.57;;;;;;;;;;2617186;54;20461;-85
2023/12/08 13:37:13;;;;;;;38.93;15.10;;;;;;;;;;2612666;54;20417;-75
2023/12/08 13:39:39;;;;;;;17.90;11.40;;;;;;;;;;2612743;54;20448;-75
2023/12/08 13:42:05;;;;;;;26.10;13.93;;;;;;;;;;2610162;47;20459;-77
2023/12/08 13:44:31;;;;;;;22.00;14.80;;;;;;;;;;2610923;54;20441;-76
2023/12/08 13:46:57;;;;;;;21.27;12.97;;;;;;;;;;2612726;54;20410;-75
2023/12/08 13:49:23;;;;;;;20.70;12.57;;;;;;;;;;2611933;54;20448;-76
2023/12/08 13:51:49;;;;;;;23.07;15.00;;;;;;;;;;2612511;54;20472;-77
2023/12/08 13:54:15;;;;;;;23.63;14.87;;;;;;;;;;2612484;39;20774;-75
2023/12/08 13:56:41;;;;;;;16.97;13.30;;;;;;;;;;2611254;54;20417;-75
2023/12/08 13:59:07;;;;;;;24.47;14.93;;;;;;;;;;2611642;46;20468;-75
2023/12/08 14:01:33;;;;;;;21.67;15.20;;;;;;;;;;2611305;54;20421;-74
2023/12/08 14:03:59;;;;;;;20.00;13.80;;;;;;;;;;2613234;39;20797;-75
2023/12/08 14:06:25;;;;;;;26.47;15.13;;;;;;;;;;2613026;39;20852;-75
2023/12/08 14:08:52;;;;;;;18.90;13.03;;;;;;;;;;2611993;54;20433;-76
2023/12/08 14:11:18;;;;;;;21.37;12.77;;;;;;;;;;2612138;54;20465;-76
2023/12/08 14:13:44;;;;;;;20.87;14.37;;;;;;;;;;2610514;54;20437;-76
2023/12/08 14:16:10;;;;;;;17.63;11.87;;;;;;;;;;2611070;54;20988;-76
2023/12/08 14:18:36;;;;;;;21.77;12.83;;;;;;;;;;2610805;54;20537;-75
2023/12/08 14:21:02;;;;;;;20.43;11.10;;;;;;;;;;2611941;54;20421;-75